sensor_id;sensor_type;location;lat;lon;timestamp;pressure;altitude;pressure_sealevel;temperature;humidity
54588;BME280;40484;50.198;19.576;2023-03-20T09:17:02;101705.73;;;15.07;43.60
54588;BME280;40484;50.198;19.576;2023-03-20T09:22:04;101708.65;;;15.07;43.40
54588;BME280;40484;50.198;19.576;2023-03-20T09:27:06;101704.28;;;15.04;43.40
54588;BME280;40484;50.198;19.576;2023-03-20T09:32:11;101700.76;;;14.97;43.78
54588;BME280;40484;50.198;19.576;2023-03-20T09:37:13;101698.05;;;15.35;42.69
54588;BME280;40484;50.198;19.576;2023-03-20T09:42:33;101697.14;;;15.47;42.68
54588;BME280;40484;50.198;19.576;2023-03-20T09:47:36;101706.59;;;15.43;43.52
54588;BME280;40484;50.198;19.576;2023-03-20T09:53:00;101707.05;;;15.38;43.62
54588;BME280;40484;50.198;19.576;2023-03-20T09:57:50;101704.84;;;15.21;44.51
54588;BME280;40484;50.198;19.576;2023-03-20T10:02:57;101705.27;;;15.16;45.04
54588;BME280;40484;50.198;19.576;2023-03-20T10:08:04;101706.17;;;14.98;45.02
54588;BME280;40484;50.198;19.576;2023-03-20T10:18:48;101703.12;;;15.23;44.32
54588;BME280;40484;50.198;19.576;2023-03-20T10:24:04;101716.05;;;15.37;44.61
54588;BME280;40484;50.198;19.576;2023-03-20T10:29:13;101707.34;;;15.24;45.08
54588;BME280;40484;50.198;19.576;2023-03-20T10:34:31;101713.09;;;14.98;46.69
54588;BME280;40484;50.198;19.576;2023-03-20T10:44:44;101692.22;;;15.33;46.67
54588;BME280;40484;50.198;19.576;2023-03-20T10:49:48;101705.57;;;15.39;47.11
54588;BME280;40484;50.198;19.576;2023-03-20T10:55:00;101697.65;;;15.29;47.50
54588;BME280;40484;50.198;19.576;2023-03-20T11:00:24;101690.60;;;15.53;47.10
54588;BME280;40484;50.198;19.576;2023-03-20T11:05:31;101680.54;;;15.55;47.15
54588;BME280;40484;50.198;19.576;2023-03-20T11:10:35;101680.38;;;15.81;46.30
54588;BME280;40484;50.198;19.576;2023-03-20T11:15:36;101677.88;;;15.77;46.44
54588;BME280;40484;50.198;19.576;2023-03-20T11:20:47;101682.93;;;15.77;46.75
54588;BME280;40484;50.198;19.576;2023-03-20T11:25:58;101683.58;;;15.38;48.07
54588;BME280;40484;50.198;19.576;2023-03-20T11:36:09;101675.25;;;15.29;49.02
54588;BME280;40484;50.198;19.576;2023-03-20T11:41:24;101683.83;;;15.33;49.16
54588;BME280;40484;50.198;19.576;2023-03-20T11:46:25;101675.49;;;14.77;51.12
54588;BME280;40484;50.198;19.576;2023-03-20T11:51:27;101668.72;;;15.35;49.93
54588;BME280;40484;50.198;19.576;2023-03-20T11:56:30;101655.38;;;15.56;50.19
54588;BME280;40484;50.198;19.576;2023-03-20T12:01:46;101648.66;;;15.85;48.55
54588;BME280;40484;50.198;19.576;2023-03-20T12:07:29;101653.85;;;15.93;48.32
54588;BME280;40484;50.198;19.576;2023-03-20T12:12:42;101650.40;;;15.81;48.70
54588;BME280;40484;50.198;19.576;2023-03-20T12:33:33;101632.58;;;16.01;48.29
54588;BME280;40484;50.198;19.576;2023-03-20T12:38:33;101636.98;;;16.04;48.02
54588;BME280;40484;50.198;19.576;2023-03-20T12:43:54;101637.96;;;16.11;47.57
54588;BME280;40484;50.198;19.576;2023-03-20T12:49:25;101637.96;;;16.09;47.78
54588;BME280;40484;50.198;19.576;2023-03-20T12:54:39;101632.99;;;16.03;47.91
54588;BME280;40484;50.198;19.576;2023-03-20T13:10:20;101634.92;;;15.75;48.37
54588;BME280;40484;50.198;19.576;2023-03-20T13:20:51;101628.16;;;15.82;48.20
54588;BME280;40484;50.198;19.576;2023-03-20T13:26:37;101624.80;;;16.27;47.22
54588;BME280;40484;50.198;19.576;2023-03-20T13:31:49;101620.45;;;16.19;46.70
54588;BME280;40484;50.198;19.576;2023-03-20T13:41:59;101622.31;;;16.01;47.33
54588;BME280;40484;50.198;19.576;2023-03-20T13:47:04;101629.09;;;15.70;48.14
54588;BME280;40484;50.198;19.576;2023-03-20T13:52:12;101629.84;;;15.55;48.47
54588;BME280;40484;50.198;19.576;2023-03-20T14:07:35;101618.63;;;15.91;48.88
54588;BME280;40484;50.198;19.576;2023-03-20T14:12:37;101619.91;;;15.88;49.00
54588;BME280;40484;50.198;19.576;2023-03-20T14:18:12;101621.57;;;15.93;48.94
54588;BME280;40484;50.198;19.576;2023-03-20T14:23:16;101625.14;;;15.93;48.80
54588;BME280;40484;50.198;19.576;2023-03-20T14:33:26;101624.58;;;15.82;48.89
54588;BME280;40484;50.198;19.576;2023-03-20T14:38:33;101631.43;;;15.63;49.25
54588;BME280;40484;50.198;19.576;2023-03-20T14:48:55;101619.66;;;15.74;47.73
54588;BME280;40484;50.198;19.576;2023-03-20T14:54:21;101628.49;;;15.35;48.58
54588;BME280;40484;50.198;19.576;2023-03-20T14:59:04;101631.88;;;15.34;48.71
54588;BME280;40484;50.198;19.576;2023-03-20T15:09:55;101626.01;;;15.34;49.72
54588;BME280;40484;50.198;19.576;2023-03-20T15:15:01;101619.73;;;15.33;49.88
54588;BME280;40484;50.198;19.576;2023-03-20T15:25:20;101618.11;;;15.51;49.67
54588;BME280;40484;50.198;19.576;2023-03-20T15:30:22;101619.69;;;15.65;49.38
54588;BME280;40484;50.198;19.576;2023-03-20T15:35:25;101614.82;;;15.46;49.98
54588;BME280;40484;50.198;19.576;2023-03-20T15:40:28;101612.33;;;15.67;49.52
54588;BME280;40484;50.198;19.576;2023-03-20T15:45:32;101609.57;;;15.77;49.31
54588;BME280;40484;50.198;19.576;2023-03-20T15:50:35;101614.50;;;15.85;49.11
54588;BME280;40484;50.198;19.576;2023-03-20T15:55:37;101618.56;;;15.76;49.36
54588;BME280;40484;50.198;19.576;2023-03-20T16:00:46;101624.60;;;15.53;49.97
54588;BME280;40484;50.198;19.576;2023-03-20T16:05:50;101631.71;;;15.53;50.04
54588;BME280;40484;50.198;19.576;2023-03-20T16:10:57;101632.66;;;15.66;49.64
54588;BME280;40484;50.198;19.576;2023-03-20T16:15:59;101627.43;;;15.71;49.49
54588;BME280;40484;50.198;19.576;2023-03-20T16:21:27;101624.23;;;15.99;48.84
54588;BME280;40484;50.198;19.576;2023-03-20T16:26:29;101614.70;;;16.09;48.51
54588;BME280;40484;50.198;19.576;2023-03-20T16:31:33;101610.90;;;16.31;48.16
54588;BME280;40484;50.198;19.576;2023-03-20T16:36:36;101603.48;;;16.53;47.65
54588;BME280;40484;50.198;19.576;2023-03-20T16:41:39;101602.45;;;16.70;47.27
54588;BME280;40484;50.198;19.576;2023-03-20T16:47:00;101602.89;;;16.88;46.80
54588;BME280;40484;50.198;19.576;2023-03-20T16:52:04;101610.34;;;16.94;46.34
54588;BME280;40484;50.198;19.576;2023-03-20T16:57:16;101613.99;;;16.88;46.00
54588;BME280;40484;50.198;19.576;2023-03-20T17:02:28;101621.96;;;16.71;46.27
54588;BME280;40484;50.198;19.576;2023-03-20T17:07:30;101625.07;;;16.72;46.51
54588;BME280;40484;50.198;19.576;2023-03-20T17:12:32;101623.06;;;16.65;46.77
54588;BME280;40484;50.198;19.576;2023-03-20T17:17:35;101628.16;;;16.61;46.82
54588;BME280;40484;50.198;19.576;2023-03-20T17:22:36;101625.63;;;16.46;47.01
54588;BME280;40484;50.198;19.576;2023-03-20T17:28:02;101635.02;;;16.51;46.89
54588;BME280;40484;50.198;19.576;2023-03-20T17:33:08;101626.92;;;16.60;46.72
54588;BME280;40484;50.198;19.576;2023-03-20T17:38:14;101635.66;;;16.48;47.02
54588;BME280;40484;50.198;19.576;2023-03-20T17:43:12;101635.30;;;16.43;47.08
54588;BME280;40484;50.198;19.576;2023-03-20T17:48:16;101626.26;;;16.44;46.58
54588;BME280;40484;50.198;19.576;2023-03-20T17:53:20;101632.05;;;16.35;46.15
54588;BME280;40484;50.198;19.576;2023-03-20T17:58:22;101634.43;;;16.27;46.54
54588;BME280;40484;50.198;19.576;2023-03-20T18:03:24;101637.32;;;16.10;46.73
54588;BME280;40484;50.198;19.576;2023-03-20T18:08:26;101640.60;;;15.98;46.60
54588;BME280;40484;50.198;19.576;2023-03-20T18:13:28;101646.81;;;16.04;46.23
54588;BME280;40484;50.198;19.576;2023-03-20T18:18:30;101638.72;;;15.96;45.59
54588;BME280;40484;50.198;19.576;2023-03-20T18:23:31;101643.05;;;15.83;45.57
54588;BME280;40484;50.198;19.576;2023-03-20T18:28:33;101647.14;;;15.70;45.99
54588;BME280;40484;50.198;19.576;2023-03-20T18:33:34;101641.70;;;15.65;46.29
54588;BME280;40484;50.198;19.576;2023-03-20T18:38:36;101649.84;;;15.36;47.38
54588;BME280;40484;50.198;19.576;2023-03-20T18:43:41;101650.23;;;15.12;47.86
54588;BME280;40484;50.198;19.576;2023-03-20T18:48:43;101649.29;;;14.91;48.76
54588;BME280;40484;50.198;19.576;2023-03-20T18:53:46;101651.49;;;14.69;49.76
54588;BME280;40484;50.198;19.576;2023-03-20T19:00:30;101650.41;;;14.71;49.76
54588;BME280;40484;50.198;19.576;2023-03-20T19:05:33;101648.94;;;14.71;49.92
54588;BME280;40484;50.198;19.576;2023-03-20T19:10:37;101648.75;;;14.70;50.05
54588;BME280;40484;50.198;19.576;2023-03-20T19:15:39;101650.69;;;14.52;50.66
54588;BME280;40484;50.198;19.576;2023-03-20T19:20:43;101650.08;;;14.44;50.71
54588;BME280;40484;50.198;19.576;2023-03-20T19:25:46;101650.30;;;14.41;50.88
54588;BME280;40484;50.198;19.576;2023-03-20T19:30:48;101650.92;;;14.40;51.13
54588;BME280;40484;50.198;19.576;2023-03-20T19:35:50;101645.88;;;14.43;51.23
54588;BME280;40484;50.198;19.576;2023-03-20T19:40:52;101642.73;;;14.45;51.38
54588;BME280;40484;50.198;19.576;2023-03-20T19:45:54;101651.91;;;14.63;50.96
54588;BME280;40484;50.198;19.576;2023-03-20T19:50:57;101642.34;;;14.43;51.46
54588;BME280;40484;50.198;19.576;2023-03-20T19:55:58;101641.29;;;14.36;51.83
54588;BME280;40484;50.198;19.576;2023-03-20T20:01:00;101633.13;;;14.39;51.91
54588;BME280;40484;50.198;19.576;2023-03-20T20:06:02;101629.78;;;14.39;52.00
54588;BME280;40484;50.198;19.576;2023-03-20T20:11:04;101630.22;;;14.36;52.17
54588;BME280;40484;50.198;19.576;2023-03-20T20:16:06;101641.13;;;14.28;52.50
54588;BME280;40484;50.198;19.576;2023-03-20T20:21:08;101626.66;;;14.36;52.35
54588;BME280;40484;50.198;19.576;2023-03-20T20:26:09;101634.59;;;14.47;52.13
54588;BME280;40484;50.198;19.576;2023-03-20T20:31:11;101620.83;;;14.35;52.36
54588;BME280;40484;50.198;19.576;2023-03-20T20:36:37;101625.19;;;14.52;52.07
54588;BME280;40484;50.198;19.576;2023-03-20T20:41:38;101621.20;;;14.51;52.25
54588;BME280;40484;50.198;19.576;2023-03-20T20:46:40;101623.51;;;14.51;52.41
54588;BME280;40484;50.198;19.576;2023-03-20T20:51:41;101619.72;;;14.55;52.36
54588;BME280;40484;50.198;19.576;2023-03-20T20:56:43;101623.48;;;14.46;52.53
54588;BME280;40484;50.198;19.576;2023-03-20T21:01:45;101632.73;;;14.37;52.89
54588;BME280;40484;50.198;19.576;2023-03-20T21:06:46;101634.86;;;14.28;53.19
54588;BME280;40484;50.198;19.576;2023-03-20T21:11:48;101642.19;;;14.08;53.71
54588;BME280;40484;50.198;19.576;2023-03-20T21:16:50;101643.91;;;13.79;54.92
54588;BME280;40484;50.198;19.576;2023-03-20T21:21:51;101648.25;;;13.38;56.58
54588;BME280;40484;50.198;19.576;2023-03-20T21:26:53;101646.57;;;13.31;56.95
54588;BME280;40484;50.198;19.576;2023-03-20T21:31:54;101652.80;;;13.21;57.30
54588;BME280;40484;50.198;19.576;2023-03-20T21:36:56;101652.58;;;13.22;57.01
54588;BME280;40484;50.198;19.576;2023-03-20T21:41:58;101644.23;;;13.18;57.03
54588;BME280;40484;50.198;19.576;2023-03-20T21:47:00;101647.14;;;13.22;56.81
54588;BME280;40484;50.198;19.576;2023-03-20T21:52:02;101655.09;;;13.21;56.73
54588;BME280;40484;50.198;19.576;2023-03-20T21:57:03;101657.13;;;13.01;57.03
54588;BME280;40484;50.198;19.576;2023-03-20T22:02:06;101654.02;;;13.09;56.83
